АеродромСадржај TAF прогнозе
LYBETAF LYBE 131700Z 1318/1418 03005KT CAVOK TX34/1413Z TN20/1403Z PROB40 TEMPO 1414/1417 5000 TSRA SCT030CB SCT045=
LYBTTAF LYBT 131700Z 1318/1418 12004KT CAVOK TX33/1413Z TN17/1403Z PROB40 TEMPO 1414/1417 5000 TSRA SCT033CB SCT040=
LYKVTAF LYKV 131700Z 1318/1418 12005KT CAVOK TX33/1413Z TN15/1403Z TEMPO 1403/1405 2000 BR PROB40 TEMPO 1415/1418 5000 TSRA SCT030CB SCT040=
LYNITAF LYNI 131100Z 1312/1412 33007KT CAVOK TX33/1314Z TN17/1403Z=
LYVRTAF LYVR 131700Z 1318/1418 11005KT CAVOK TX34/1414Z TN20/1403Z=
LYUZTAF LYUZ 131700Z 1318/1418 10005KT CAVOK TX25/1413Z TN13/1403Z TEMPO 1414/1418 3000 TSRA SCT010CB SCT015=
LYPGTAF LYPG 131100Z 1312/1412 16005KT 9999 FEW040 TX35/1314Z TN21/1403Z TEMPO 1312/1317 22015KT=
LYTVTAF LYTV 131100Z 1312/1412 23008KT 9999 FEW050 TX33/1313Z TN18/1403Z=

Подаци учитани у: 2020-08-13 16:50:22 UTC

METAR, TAF, AIRMET, GAMET, SIGMET

Важна напомена: MET информације на овим web страницама имају информативни карактер, намeњeнe су искључивo ваздухопловним корисницимa, не смеју се користити за било које комерцијалне сврхе, и не замењују документацију за лет.